sensor_id;sensor_type;location;lat;lon;timestamp;P1;durP1;ratioP1;P2;durP2;ratioP2
2760;SDS011;15420;48.636;9.798;2023-02-28T00:00:43;4.40;;;3.10;;
2760;SDS011;15420;48.636;9.798;2023-02-28T00:03:13;4.33;;;2.70;;
2760;SDS011;15420;48.636;9.798;2023-02-28T00:05:42;4.57;;;3.80;;
2760;SDS011;15420;48.636;9.798;2023-02-28T00:08:09;4.70;;;2.53;;
2760;SDS011;15420;48.636;9.798;2023-02-28T00:10:40;8.33;;;3.00;;
2760;SDS011;15420;48.636;9.798;2023-02-28T00:13:06;6.03;;;3.10;;
2760;SDS011;15420;48.636;9.798;2023-02-28T00:15:33;4.13;;;3.00;;
2760;SDS011;15420;48.636;9.798;2023-02-28T00:18:00;3.33;;;2.70;;
2760;SDS011;15420;48.636;9.798;2023-02-28T00:20:26;3.10;;;2.80;;
2760;SDS011;15420;48.636;9.798;2023-02-28T00:22:54;5.23;;;3.13;;
2760;SDS011;15420;48.636;9.798;2023-02-28T00:25:24;3.00;;;2.77;;
2760;SDS011;15420;48.636;9.798;2023-02-28T00:27:51;4.43;;;2.70;;
2760;SDS011;15420;48.636;9.798;2023-02-28T00:30:21;3.10;;;2.83;;
2760;SDS011;15420;48.636;9.798;2023-02-28T00:32:51;3.00;;;2.60;;
2760;SDS011;15420;48.636;9.798;2023-02-28T00:35:18;6.30;;;2.83;;
2760;SDS011;15420;48.636;9.798;2023-02-28T00:37:48;2.90;;;2.53;;
2760;SDS011;15420;48.636;9.798;2023-02-28T00:40:19;6.03;;;3.60;;
2760;SDS011;15420;48.636;9.798;2023-02-28T00:42:45;4.80;;;2.87;;
2760;SDS011;15420;48.636;9.798;2023-02-28T00:45:11;3.40;;;3.00;;
2760;SDS011;15420;48.636;9.798;2023-02-28T00:47:40;2.77;;;2.53;;
2760;SDS011;15420;48.636;9.798;2023-02-28T00:50:06;3.00;;;2.80;;
2760;SDS011;15420;48.636;9.798;2023-02-28T00:52:35;2.97;;;2.70;;
2760;SDS011;15420;48.636;9.798;2023-02-28T00:55:04;2.70;;;2.50;;
2760;SDS011;15420;48.636;9.798;2023-02-28T00:57:33;7.43;;;2.90;;
2760;SDS011;15420;48.636;9.798;2023-02-28T01:00:00;4.40;;;3.17;;
2760;SDS011;15420;48.636;9.798;2023-02-28T01:02:28;8.93;;;2.93;;
2760;SDS011;15420;48.636;9.798;2023-02-28T01:04:57;3.93;;;3.00;;
2760;SDS011;15420;48.636;9.798;2023-02-28T01:07:26;3.03;;;2.70;;
2760;SDS011;15420;48.636;9.798;2023-02-28T01:09:54;3.10;;;2.50;;
2760;SDS011;15420;48.636;9.798;2023-02-28T01:12:20;5.70;;;3.47;;
2760;SDS011;15420;48.636;9.798;2023-02-28T01:14:46;3.97;;;3.13;;
2760;SDS011;15420;48.636;9.798;2023-02-28T01:17:15;5.40;;;3.40;;
2760;SDS011;15420;48.636;9.798;2023-02-28T01:19:41;3.33;;;3.00;;
2760;SDS011;15420;48.636;9.798;2023-02-28T01:22:09;5.00;;;3.70;;
2760;SDS011;15420;48.636;9.798;2023-02-28T01:24:36;3.60;;;2.97;;
2760;SDS011;15420;48.636;9.798;2023-02-28T01:27:03;3.33;;;3.03;;
2760;SDS011;15420;48.636;9.798;2023-02-28T01:29:29;4.50;;;3.23;;
2760;SDS011;15420;48.636;9.798;2023-02-28T01:31:55;5.40;;;4.07;;
2760;SDS011;15420;48.636;9.798;2023-02-28T01:34:22;5.43;;;3.50;;
2760;SDS011;15420;48.636;9.798;2023-02-28T01:36:48;3.97;;;3.00;;
2760;SDS011;15420;48.636;9.798;2023-02-28T01:39:16;7.37;;;3.03;;
2760;SDS011;15420;48.636;9.798;2023-02-28T01:41:42;2.63;;;2.43;;
2760;SDS011;15420;48.636;9.798;2023-02-28T01:47:14;3.73;;;3.40;;
2760;SDS011;15420;48.636;9.798;2023-02-28T01:49:40;2.93;;;2.57;;
2760;SDS011;15420;48.636;9.798;2023-02-28T01:52:07;4.40;;;3.90;;
2760;SDS011;15420;48.636;9.798;2023-02-28T01:54:39;4.00;;;3.07;;
2760;SDS011;15420;48.636;9.798;2023-02-28T01:57:16;5.53;;;3.73;;
2760;SDS011;15420;48.636;9.798;2023-02-28T01:59:54;3.90;;;3.30;;
2760;SDS011;15420;48.636;9.798;2023-02-28T02:02:29;4.97;;;3.60;;
2760;SDS011;15420;48.636;9.798;2023-02-28T02:05:09;4.80;;;3.70;;
2760;SDS011;15420;48.636;9.798;2023-02-28T02:07:41;5.40;;;3.40;;
2760;SDS011;15420;48.636;9.798;2023-02-28T02:15:36;4.70;;;3.07;;
2760;SDS011;15420;48.636;9.798;2023-02-28T02:21:13;3.57;;;3.27;;
2760;SDS011;15420;48.636;9.798;2023-02-28T02:48:27;4.57;;;3.87;;
2760;SDS011;15420;48.636;9.798;2023-02-28T02:50:57;4.27;;;3.60;;
2760;SDS011;15420;48.636;9.798;2023-02-28T02:53:30;5.67;;;4.03;;
2760;SDS011;15420;48.636;9.798;2023-02-28T02:56:03;4.10;;;3.70;;
2760;SDS011;15420;48.636;9.798;2023-02-28T02:58:33;4.47;;;3.70;;
2760;SDS011;15420;48.636;9.798;2023-02-28T03:01:10;4.00;;;3.60;;
2760;SDS011;15420;48.636;9.798;2023-02-28T03:03:52;4.40;;;3.77;;
2760;SDS011;15420;48.636;9.798;2023-02-28T03:06:43;5.17;;;3.60;;
2760;SDS011;15420;48.636;9.798;2023-02-28T03:09:09;5.60;;;3.70;;
2760;SDS011;15420;48.636;9.798;2023-02-28T03:11:35;4.50;;;4.10;;
2760;SDS011;15420;48.636;9.798;2023-02-28T03:17:09;4.00;;;3.60;;
2760;SDS011;15420;48.636;9.798;2023-02-28T03:22:51;4.53;;;4.00;;
2760;SDS011;15420;48.636;9.798;2023-02-28T03:25:31;4.03;;;3.47;;
2760;SDS011;15420;48.636;9.798;2023-02-28T03:31:17;6.03;;;4.13;;
2760;SDS011;15420;48.636;9.798;2023-02-28T03:33:51;5.40;;;4.07;;
2760;SDS011;15420;48.636;9.798;2023-02-28T03:36:29;5.63;;;3.67;;
2760;SDS011;15420;48.636;9.798;2023-02-28T03:39:04;7.07;;;4.80;;
2760;SDS011;15420;48.636;9.798;2023-02-28T03:41:53;4.30;;;3.90;;
2760;SDS011;15420;48.636;9.798;2023-02-28T03:44:34;5.17;;;4.30;;
2760;SDS011;15420;48.636;9.798;2023-02-28T03:47:06;4.63;;;3.93;;
2760;SDS011;15420;48.636;9.798;2023-02-28T03:50:00;6.40;;;4.27;;
2760;SDS011;15420;48.636;9.798;2023-02-28T03:52:32;6.33;;;4.03;;
2760;SDS011;15420;48.636;9.798;2023-02-28T03:55:02;13.40;;;4.50;;
2760;SDS011;15420;48.636;9.798;2023-02-28T03:57:39;6.63;;;4.00;;
2760;SDS011;15420;48.636;9.798;2023-02-28T04:00:18;6.70;;;4.20;;
2760;SDS011;15420;48.636;9.798;2023-02-28T04:02:53;5.80;;;4.50;;
2760;SDS011;15420;48.636;9.798;2023-02-28T04:05:22;6.23;;;4.10;;
2760;SDS011;15420;48.636;9.798;2023-02-28T04:07:52;7.87;;;3.80;;
2760;SDS011;15420;48.636;9.798;2023-02-28T04:10:19;5.27;;;3.53;;
2760;SDS011;15420;48.636;9.798;2023-02-28T04:12:48;7.57;;;4.50;;
2760;SDS011;15420;48.636;9.798;2023-02-28T04:15:14;7.10;;;4.13;;
2760;SDS011;15420;48.636;9.798;2023-02-28T04:17:42;7.77;;;4.43;;
2760;SDS011;15420;48.636;9.798;2023-02-28T04:20:08;6.40;;;3.90;;
2760;SDS011;15420;48.636;9.798;2023-02-28T04:22:35;5.53;;;4.23;;
2760;SDS011;15420;48.636;9.798;2023-02-28T04:25:02;6.80;;;3.90;;
2760;SDS011;15420;48.636;9.798;2023-02-28T04:27:28;4.67;;;4.27;;
2760;SDS011;15420;48.636;9.798;2023-02-28T04:29:55;9.17;;;4.90;;
2760;SDS011;15420;48.636;9.798;2023-02-28T04:32:23;8.17;;;4.90;;
2760;SDS011;15420;48.636;9.798;2023-02-28T04:34:49;6.00;;;4.90;;
2760;SDS011;15420;48.636;9.798;2023-02-28T04:37:15;7.60;;;4.70;;
2760;SDS011;15420;48.636;9.798;2023-02-28T04:39:52;6.80;;;4.90;;
2760;SDS011;15420;48.636;9.798;2023-02-28T04:42:19;5.30;;;4.43;;
2760;SDS011;15420;48.636;9.798;2023-02-28T04:44:45;5.87;;;4.50;;
2760;SDS011;15420;48.636;9.798;2023-02-28T04:47:12;4.83;;;4.00;;
2760;SDS011;15420;48.636;9.798;2023-02-28T04:49:38;6.63;;;4.87;;
2760;SDS011;15420;48.636;9.798;2023-02-28T04:52:06;5.87;;;4.70;;
2760;SDS011;15420;48.636;9.798;2023-02-28T04:54:34;5.20;;;4.70;;
2760;SDS011;15420;48.636;9.798;2023-02-28T04:57:03;5.90;;;4.40;;
2760;SDS011;15420;48.636;9.798;2023-02-28T04:59:29;6.43;;;4.87;;
2760;SDS011;15420;48.636;9.798;2023-02-28T05:01:55;8.80;;;4.50;;
2760;SDS011;15420;48.636;9.798;2023-02-28T05:04:24;5.83;;;4.60;;
2760;SDS011;15420;48.636;9.798;2023-02-28T05:06:50;5.83;;;4.40;;
2760;SDS011;15420;48.636;9.798;2023-02-28T05:09:18;7.20;;;6.00;;
2760;SDS011;15420;48.636;9.798;2023-02-28T05:11:47;7.60;;;5.67;;
2760;SDS011;15420;48.636;9.798;2023-02-28T05:14:13;6.00;;;5.07;;
2760;SDS011;15420;48.636;9.798;2023-02-28T05:16:40;7.63;;;5.40;;
2760;SDS011;15420;48.636;9.798;2023-02-28T05:19:08;6.90;;;5.10;;
2760;SDS011;15420;48.636;9.798;2023-02-28T05:21:36;8.50;;;4.77;;
2760;SDS011;15420;48.636;9.798;2023-02-28T05:24:12;5.07;;;4.47;;
2760;SDS011;15420;48.636;9.798;2023-02-28T05:26:42;6.37;;;4.80;;
2760;SDS011;15420;48.636;9.798;2023-02-28T05:29:08;9.30;;;5.50;;
2760;SDS011;15420;48.636;9.798;2023-02-28T05:31:39;7.57;;;5.47;;
2760;SDS011;15420;48.636;9.798;2023-02-28T05:34:08;5.53;;;4.67;;
2760;SDS011;15420;48.636;9.798;2023-02-28T05:36:36;6.90;;;5.07;;
2760;SDS011;15420;48.636;9.798;2023-02-28T05:39:03;8.07;;;4.57;;
2760;SDS011;15420;48.636;9.798;2023-02-28T05:41:31;6.40;;;4.83;;
2760;SDS011;15420;48.636;9.798;2023-02-28T05:44:01;6.50;;;5.60;;
2760;SDS011;15420;48.636;9.798;2023-02-28T05:46:30;8.40;;;5.30;;
2760;SDS011;15420;48.636;9.798;2023-02-28T05:48:56;6.87;;;4.80;;
2760;SDS011;15420;48.636;9.798;2023-02-28T05:51:28;8.90;;;6.30;;
2760;SDS011;15420;48.636;9.798;2023-02-28T05:53:54;6.53;;;5.20;;
2760;SDS011;15420;48.636;9.798;2023-02-28T05:56:26;7.47;;;5.30;;
2760;SDS011;15420;48.636;9.798;2023-02-28T05:58:52;7.07;;;4.43;;
2760;SDS011;15420;48.636;9.798;2023-02-28T06:01:19;6.37;;;5.37;;
2760;SDS011;15420;48.636;9.798;2023-02-28T06:03:46;8.87;;;4.97;;
2760;SDS011;15420;48.636;9.798;2023-02-28T06:06:13;6.33;;;4.80;;
2760;SDS011;15420;48.636;9.798;2023-02-28T06:08:43;8.53;;;5.90;;
2760;SDS011;15420;48.636;9.798;2023-02-28T06:11:12;17.47;;;8.00;;
2760;SDS011;15420;48.636;9.798;2023-02-28T06:13:40;8.27;;;5.40;;
2760;SDS011;15420;48.636;9.798;2023-02-28T06:16:07;8.47;;;5.37;;
2760;SDS011;15420;48.636;9.798;2023-02-28T06:18:35;9.87;;;6.23;;
2760;SDS011;15420;48.636;9.798;2023-02-28T06:21:04;10.10;;;6.80;;
2760;SDS011;15420;48.636;9.798;2023-02-28T06:23:30;17.93;;;10.80;;
2760;SDS011;15420;48.636;9.798;2023-02-28T06:25:59;14.37;;;8.80;;
2760;SDS011;15420;48.636;9.798;2023-02-28T06:28:25;8.73;;;5.93;;
2760;SDS011;15420;48.636;9.798;2023-02-28T06:30:52;10.03;;;7.27;;
2760;SDS011;15420;48.636;9.798;2023-02-28T06:33:20;10.60;;;8.40;;
2760;SDS011;15420;48.636;9.798;2023-02-28T06:35:47;9.83;;;6.90;;
2760;SDS011;15420;48.636;9.798;2023-02-28T06:38:19;12.90;;;7.43;;
2760;SDS011;15420;48.636;9.798;2023-02-28T06:40:52;14.20;;;6.87;;
2760;SDS011;15420;48.636;9.798;2023-02-28T06:43:21;11.07;;;6.17;;
2760;SDS011;15420;48.636;9.798;2023-02-28T06:45:48;10.03;;;6.67;;
2760;SDS011;15420;48.636;9.798;2023-02-28T06:48:17;12.70;;;7.03;;
2760;SDS011;15420;48.636;9.798;2023-02-28T06:50:43;10.33;;;6.63;;
2760;SDS011;15420;48.636;9.798;2023-02-28T06:53:12;7.77;;;6.37;;
2760;SDS011;15420;48.636;9.798;2023-02-28T06:55:39;9.70;;;6.23;;
2760;SDS011;15420;48.636;9.798;2023-02-28T06:58:08;11.40;;;6.77;;
2760;SDS011;15420;48.636;9.798;2023-02-28T07:00:44;8.63;;;6.50;;
2760;SDS011;15420;48.636;9.798;2023-02-28T07:03:14;9.93;;;6.13;;
2760;SDS011;15420;48.636;9.798;2023-02-28T07:05:40;7.73;;;5.80;;
2760;SDS011;15420;48.636;9.798;2023-02-28T07:08:11;9.43;;;7.00;;
2760;SDS011;15420;48.636;9.798;2023-02-28T07:10:38;7.10;;;5.37;;
2760;SDS011;15420;48.636;9.798;2023-02-28T07:13:04;9.70;;;7.07;;
2760;SDS011;15420;48.636;9.798;2023-02-28T07:15:35;9.27;;;6.20;;
2760;SDS011;15420;48.636;9.798;2023-02-28T07:18:03;7.90;;;5.93;;
2760;SDS011;15420;48.636;9.798;2023-02-28T07:20:30;10.40;;;6.23;;
2760;SDS011;15420;48.636;9.798;2023-02-28T07:22:57;14.73;;;6.87;;
2760;SDS011;15420;48.636;9.798;2023-02-28T07:25:24;11.80;;;7.07;;
2760;SDS011;15420;48.636;9.798;2023-02-28T07:27:51;16.37;;;7.50;;
2760;SDS011;15420;48.636;9.798;2023-02-28T07:30:18;9.43;;;5.80;;
2760;SDS011;15420;48.636;9.798;2023-02-28T07:32:45;12.40;;;6.17;;
2760;SDS011;15420;48.636;9.798;2023-02-28T07:35:14;7.73;;;5.80;;
2760;SDS011;15420;48.636;9.798;2023-02-28T07:37:44;11.30;;;7.53;;
2760;SDS011;15420;48.636;9.798;2023-02-28T07:40:12;9.27;;;6.40;;
2760;SDS011;15420;48.636;9.798;2023-02-28T07:42:39;9.50;;;6.00;;
2760;SDS011;15420;48.636;9.798;2023-02-28T07:45:07;10.70;;;7.20;;
2760;SDS011;15420;48.636;9.798;2023-02-28T07:47:36;13.40;;;7.97;;
2760;SDS011;15420;48.636;9.798;2023-02-28T07:50:04;11.17;;;6.10;;
2760;SDS011;15420;48.636;9.798;2023-02-28T07:52:31;9.00;;;6.50;;
2760;SDS011;15420;48.636;9.798;2023-02-28T07:54:59;8.37;;;6.37;;
2760;SDS011;15420;48.636;9.798;2023-02-28T07:57:25;8.60;;;6.43;;
2760;SDS011;15420;48.636;9.798;2023-02-28T07:59:54;12.40;;;7.33;;
2760;SDS011;15420;48.636;9.798;2023-02-28T08:02:20;12.57;;;7.33;;
2760;SDS011;15420;48.636;9.798;2023-02-28T08:04:46;12.50;;;7.90;;
2760;SDS011;15420;48.636;9.798;2023-02-28T08:07:13;10.90;;;7.00;;
2760;SDS011;15420;48.636;9.798;2023-02-28T08:09:40;10.00;;;6.73;;
2760;SDS011;15420;48.636;9.798;2023-02-28T08:12:07;8.90;;;6.77;;
2760;SDS011;15420;48.636;9.798;2023-02-28T08:14:36;10.03;;;6.33;;
2760;SDS011;15420;48.636;9.798;2023-02-28T08:17:08;12.73;;;6.83;;
2760;SDS011;15420;48.636;9.798;2023-02-28T08:19:35;10.30;;;7.53;;
2760;SDS011;15420;48.636;9.798;2023-02-28T08:22:01;10.67;;;7.13;;
2760;SDS011;15420;48.636;9.798;2023-02-28T08:24:30;9.03;;;6.53;;
2760;SDS011;15420;48.636;9.798;2023-02-28T08:26:56;10.00;;;7.80;;
2760;SDS011;15420;48.636;9.798;2023-02-28T08:29:22;12.37;;;8.00;;
2760;SDS011;15420;48.636;9.798;2023-02-28T08:31:48;12.50;;;7.17;;
2760;SDS011;15420;48.636;9.798;2023-02-28T08:34:15;12.40;;;8.20;;
2760;SDS011;15420;48.636;9.798;2023-02-28T08:36:44;13.17;;;7.63;;
2760;SDS011;15420;48.636;9.798;2023-02-28T08:39:10;9.33;;;6.80;;
2760;SDS011;15420;48.636;9.798;2023-02-28T08:41:37;12.07;;;7.87;;
2760;SDS011;15420;48.636;9.798;2023-02-28T08:44:06;10.57;;;7.40;;
2760;SDS011;15420;48.636;9.798;2023-02-28T08:46:35;10.80;;;6.60;;
2760;SDS011;15420;48.636;9.798;2023-02-28T08:49:03;11.87;;;6.90;;
2760;SDS011;15420;48.636;9.798;2023-02-28T08:51:29;11.87;;;6.77;;
2760;SDS011;15420;48.636;9.798;2023-02-28T08:54:00;12.53;;;6.90;;
2760;SDS011;15420;48.636;9.798;2023-02-28T08:56:27;10.03;;;7.57;;
2760;SDS011;15420;48.636;9.798;2023-02-28T08:58:54;13.07;;;7.53;;
2760;SDS011;15420;48.636;9.798;2023-02-28T09:01:26;9.77;;;6.30;;
2760;SDS011;15420;48.636;9.798;2023-02-28T09:03:56;11.00;;;7.47;;
2760;SDS011;15420;48.636;9.798;2023-02-28T09:06:24;9.80;;;6.87;;
2760;SDS011;15420;48.636;9.798;2023-02-28T09:08:51;9.40;;;6.87;;
2760;SDS011;15420;48.636;9.798;2023-02-28T09:11:20;11.20;;;7.70;;
2760;SDS011;15420;48.636;9.798;2023-02-28T09:13:46;10.30;;;6.87;;
2760;SDS011;15420;48.636;9.798;2023-02-28T09:16:17;11.33;;;7.30;;
2760;SDS011;15420;48.636;9.798;2023-02-28T09:18:43;7.77;;;6.33;;
2760;SDS011;15420;48.636;9.798;2023-02-28T09:21:14;10.40;;;6.60;;
2760;SDS011;15420;48.636;9.798;2023-02-28T09:23:42;15.63;;;7.83;;
2760;SDS011;15420;48.636;9.798;2023-02-28T09:26:13;10.47;;;7.73;;
2760;SDS011;15420;48.636;9.798;2023-02-28T09:28:41;12.93;;;6.67;;
2760;SDS011;15420;48.636;9.798;2023-02-28T09:31:11;13.53;;;7.27;;
2760;SDS011;15420;48.636;9.798;2023-02-28T09:33:39;13.67;;;7.53;;
2760;SDS011;15420;48.636;9.798;2023-02-28T09:36:06;13.20;;;7.03;;
2760;SDS011;15420;48.636;9.798;2023-02-28T09:38:32;13.00;;;7.60;;
2760;SDS011;15420;48.636;9.798;2023-02-28T09:41:00;18.10;;;10.03;;
2760;SDS011;15420;48.636;9.798;2023-02-28T09:43:34;18.33;;;8.50;;
2760;SDS011;15420;48.636;9.798;2023-02-28T09:49:06;11.13;;;7.40;;
2760;SDS011;15420;48.636;9.798;2023-02-28T09:54:13;13.03;;;8.07;;
2760;SDS011;15420;48.636;9.798;2023-02-28T09:56:58;15.80;;;9.07;;
2760;SDS011;15420;48.636;9.798;2023-02-28T10:05:17;21.77;;;12.43;;
2760;SDS011;15420;48.636;9.798;2023-02-28T10:08:21;16.83;;;9.40;;
2760;SDS011;15420;48.636;9.798;2023-02-28T10:10:56;37.40;;;16.33;;
2760;SDS011;15420;48.636;9.798;2023-02-28T10:16:23;26.77;;;14.37;;
2760;SDS011;15420;48.636;9.798;2023-02-28T10:24:16;19.60;;;10.90;;
2760;SDS011;15420;48.636;9.798;2023-02-28T10:26:45;15.57;;;9.93;;
2760;SDS011;15420;48.636;9.798;2023-02-28T10:29:16;14.67;;;8.93;;
2760;SDS011;15420;48.636;9.798;2023-02-28T10:31:42;10.97;;;7.73;;
2760;SDS011;15420;48.636;9.798;2023-02-28T10:34:11;12.80;;;9.60;;
2760;SDS011;15420;48.636;9.798;2023-02-28T10:36:38;12.83;;;9.73;;
2760;SDS011;15420;48.636;9.798;2023-02-28T10:42:00;13.30;;;8.50;;
2760;SDS011;15420;48.636;9.798;2023-02-28T10:44:29;13.70;;;8.33;;
2760;SDS011;15420;48.636;9.798;2023-02-28T10:46:57;13.40;;;8.80;;
2760;SDS011;15420;48.636;9.798;2023-02-28T10:49:28;13.00;;;9.67;;
2760;SDS011;15420;48.636;9.798;2023-02-28T10:51:58;13.87;;;8.50;;
2760;SDS011;15420;48.636;9.798;2023-02-28T10:54:35;13.13;;;8.30;;
2760;SDS011;15420;48.636;9.798;2023-02-28T10:59:51;13.00;;;8.87;;
2760;SDS011;15420;48.636;9.798;2023-02-28T11:02:36;14.33;;;10.23;;
2760;SDS011;15420;48.636;9.798;2023-02-28T11:05:23;17.03;;;10.03;;
2760;SDS011;15420;48.636;9.798;2023-02-28T11:10:43;15.80;;;9.63;;
2760;SDS011;15420;48.636;9.798;2023-02-28T11:13:16;13.40;;;9.43;;
2760;SDS011;15420;48.636;9.798;2023-02-28T11:15:50;12.20;;;8.63;;
2760;SDS011;15420;48.636;9.798;2023-02-28T11:18:24;12.20;;;9.03;;
2760;SDS011;15420;48.636;9.798;2023-02-28T11:20:55;12.80;;;8.67;;
2760;SDS011;15420;48.636;9.798;2023-02-28T11:23:26;11.20;;;7.87;;
2760;SDS011;15420;48.636;9.798;2023-02-28T11:25:59;12.10;;;8.50;;
2760;SDS011;15420;48.636;9.798;2023-02-28T11:38:52;11.63;;;7.93;;
2760;SDS011;15420;48.636;9.798;2023-02-28T11:44:08;11.93;;;8.07;;
2760;SDS011;15420;48.636;9.798;2023-02-28T11:46:41;14.10;;;8.43;;
2760;SDS011;15420;48.636;9.798;2023-02-28T11:54:52;13.63;;;8.67;;
2760;SDS011;15420;48.636;9.798;2023-02-28T12:07:54;12.30;;;8.83;;
2760;SDS011;15420;48.636;9.798;2023-02-28T12:13:32;10.07;;;7.67;;
2760;SDS011;15420;48.636;9.798;2023-02-28T12:16:32;11.03;;;8.43;;
2760;SDS011;15420;48.636;9.798;2023-02-28T12:19:20;12.40;;;7.93;;
2760;SDS011;15420;48.636;9.798;2023-02-28T12:22:15;13.50;;;7.80;;
2760;SDS011;15420;48.636;9.798;2023-02-28T12:27:31;13.07;;;8.50;;
2760;SDS011;15420;48.636;9.798;2023-02-28T12:32:39;11.37;;;8.50;;
2760;SDS011;15420;48.636;9.798;2023-02-28T12:35:13;11.33;;;8.10;;
2760;SDS011;15420;48.636;9.798;2023-02-28T12:37:50;10.67;;;7.57;;
2760;SDS011;15420;48.636;9.798;2023-02-28T12:40:23;11.50;;;7.90;;
2760;SDS011;15420;48.636;9.798;2023-02-28T12:43:04;10.53;;;7.57;;
2760;SDS011;15420;48.636;9.798;2023-02-28T12:48:10;10.30;;;7.93;;
2760;SDS011;15420;48.636;9.798;2023-02-28T12:50:49;12.67;;;8.17;;
2760;SDS011;15420;48.636;9.798;2023-02-28T12:58:48;12.23;;;7.90;;
2760;SDS011;15420;48.636;9.798;2023-02-28T13:09:51;10.70;;;7.97;;
2760;SDS011;15420;48.636;9.798;2023-02-28T13:12:19;8.77;;;7.20;;
2760;SDS011;15420;48.636;9.798;2023-02-28T13:14:48;8.23;;;7.03;;
2760;SDS011;15420;48.636;9.798;2023-02-28T13:17:19;13.27;;;7.50;;
2760;SDS011;15420;48.636;9.798;2023-02-28T13:22:20;9.00;;;6.67;;
2760;SDS011;15420;48.636;9.798;2023-02-28T13:25:51;6.57;;;5.80;;
2760;SDS011;15420;48.636;9.798;2023-02-28T13:28:12;8.43;;;6.73;;
2760;SDS011;15420;48.636;9.798;2023-02-28T13:31:03;12.03;;;6.50;;
2760;SDS011;15420;48.636;9.798;2023-02-28T13:33:33;9.00;;;6.13;;
2760;SDS011;15420;48.636;9.798;2023-02-28T13:38:42;9.47;;;5.73;;
2760;SDS011;15420;48.636;9.798;2023-02-28T13:46:33;9.67;;;7.47;;
2760;SDS011;15420;48.636;9.798;2023-02-28T13:52:16;9.73;;;7.00;;
2760;SDS011;15420;48.636;9.798;2023-02-28T14:03:13;9.70;;;6.70;;
2760;SDS011;15420;48.636;9.798;2023-02-28T14:05:49;10.60;;;6.20;;
2760;SDS011;15420;48.636;9.798;2023-02-28T14:11:28;7.23;;;5.97;;
2760;SDS011;15420;48.636;9.798;2023-02-28T14:13:57;6.17;;;5.50;;
2760;SDS011;15420;48.636;9.798;2023-02-28T14:16:27;8.30;;;6.13;;
2760;SDS011;15420;48.636;9.798;2023-02-28T14:38:59;7.67;;;6.10;;
2760;SDS011;15420;48.636;9.798;2023-02-28T14:41:32;7.70;;;6.27;;
2760;SDS011;15420;48.636;9.798;2023-02-28T14:44:03;9.03;;;6.37;;
2760;SDS011;15420;48.636;9.798;2023-02-28T14:46:41;9.90;;;7.03;;
2760;SDS011;15420;48.636;9.798;2023-02-28T14:49:17;10.43;;;7.00;;
2760;SDS011;15420;48.636;9.798;2023-02-28T14:51:45;10.30;;;6.90;;
2760;SDS011;15420;48.636;9.798;2023-02-28T14:54:14;8.27;;;6.43;;
2760;SDS011;15420;48.636;9.798;2023-02-28T14:56:47;7.37;;;6.57;;
2760;SDS011;15420;48.636;9.798;2023-02-28T14:59:22;9.57;;;6.87;;
2760;SDS011;15420;48.636;9.798;2023-02-28T15:01:52;11.20;;;7.67;;
2760;SDS011;15420;48.636;9.798;2023-02-28T15:04:38;10.23;;;6.97;;
2760;SDS011;15420;48.636;9.798;2023-02-28T15:07:07;11.90;;;7.13;;
2760;SDS011;15420;48.636;9.798;2023-02-28T15:09:38;11.57;;;6.80;;
2760;SDS011;15420;48.636;9.798;2023-02-28T15:12:05;13.47;;;7.43;;
2760;SDS011;15420;48.636;9.798;2023-02-28T15:14:32;9.90;;;6.90;;
2760;SDS011;15420;48.636;9.798;2023-02-28T15:17:06;12.40;;;6.87;;
2760;SDS011;15420;48.636;9.798;2023-02-28T15:19:41;11.03;;;7.20;;
2760;SDS011;15420;48.636;9.798;2023-02-28T15:22:15;8.70;;;7.33;;
2760;SDS011;15420;48.636;9.798;2023-02-28T15:24:56;10.17;;;7.60;;
2760;SDS011;15420;48.636;9.798;2023-02-28T15:27:25;10.00;;;6.90;;
2760;SDS011;15420;48.636;9.798;2023-02-28T15:30:17;10.63;;;6.90;;
2760;SDS011;15420;48.636;9.798;2023-02-28T15:33:01;11.00;;;7.70;;
2760;SDS011;15420;48.636;9.798;2023-02-28T15:35:43;10.20;;;7.10;;
2760;SDS011;15420;48.636;9.798;2023-02-28T15:38:43;10.33;;;7.30;;
2760;SDS011;15420;48.636;9.798;2023-02-28T15:41:02;15.63;;;8.17;;
2760;SDS011;15420;48.636;9.798;2023-02-28T15:43:36;12.63;;;8.00;;
2760;SDS011;15420;48.636;9.798;2023-02-28T15:46:08;11.13;;;7.47;;
2760;SDS011;15420;48.636;9.798;2023-02-28T15:56:25;12.50;;;7.13;;
2760;SDS011;15420;48.636;9.798;2023-02-28T15:58:56;10.40;;;7.63;;
2760;SDS011;15420;48.636;9.798;2023-02-28T16:01:25;10.63;;;7.03;;
2760;SDS011;15420;48.636;9.798;2023-02-28T16:03:59;9.90;;;7.57;;
2760;SDS011;15420;48.636;9.798;2023-02-28T16:09:26;12.23;;;6.47;;
2760;SDS011;15420;48.636;9.798;2023-02-28T16:11:55;11.27;;;7.80;;
2760;SDS011;15420;48.636;9.798;2023-02-28T16:14:27;11.00;;;8.10;;
2760;SDS011;15420;48.636;9.798;2023-02-28T16:17:07;11.60;;;7.40;;
2760;SDS011;15420;48.636;9.798;2023-02-28T16:19:44;10.70;;;7.53;;
2760;SDS011;15420;48.636;9.798;2023-02-28T16:22:13;11.30;;;7.43;;
2760;SDS011;15420;48.636;9.798;2023-02-28T16:24:39;13.60;;;7.60;;
2760;SDS011;15420;48.636;9.798;2023-02-28T16:27:06;10.20;;;7.60;;
2760;SDS011;15420;48.636;9.798;2023-02-28T16:29:43;9.40;;;7.00;;
2760;SDS011;15420;48.636;9.798;2023-02-28T16:32:14;14.57;;;7.40;;
2760;SDS011;15420;48.636;9.798;2023-02-28T16:34:44;11.90;;;7.03;;
2760;SDS011;15420;48.636;9.798;2023-02-28T16:37:16;10.73;;;8.20;;
2760;SDS011;15420;48.636;9.798;2023-02-28T16:39:43;12.37;;;8.70;;
2760;SDS011;15420;48.636;9.798;2023-02-28T16:42:13;12.60;;;7.53;;
2760;SDS011;15420;48.636;9.798;2023-02-28T16:44:50;13.07;;;8.27;;
2760;SDS011;15420;48.636;9.798;2023-02-28T16:47:18;13.83;;;7.93;;
2760;SDS011;15420;48.636;9.798;2023-02-28T16:49:44;14.13;;;7.70;;
2760;SDS011;15420;48.636;9.798;2023-02-28T16:52:13;11.70;;;8.60;;
2760;SDS011;15420;48.636;9.798;2023-02-28T16:54:40;13.90;;;9.37;;
2760;SDS011;15420;48.636;9.798;2023-02-28T16:57:08;12.17;;;8.50;;
2760;SDS011;15420;48.636;9.798;2023-02-28T16:59:50;13.27;;;7.87;;
2760;SDS011;15420;48.636;9.798;2023-02-28T17:02:19;9.50;;;7.37;;
2760;SDS011;15420;48.636;9.798;2023-02-28T17:04:45;12.70;;;8.50;;
2760;SDS011;15420;48.636;9.798;2023-02-28T17:07:12;12.97;;;8.87;;
2760;SDS011;15420;48.636;9.798;2023-02-28T17:09:43;10.67;;;7.87;;
2760;SDS011;15420;48.636;9.798;2023-02-28T17:12:10;13.83;;;8.43;;
2760;SDS011;15420;48.636;9.798;2023-02-28T17:14:39;13.57;;;8.77;;
2760;SDS011;15420;48.636;9.798;2023-02-28T17:17:05;11.00;;;8.00;;
2760;SDS011;15420;48.636;9.798;2023-02-28T17:19:34;12.30;;;7.07;;
2760;SDS011;15420;48.636;9.798;2023-02-28T17:22:01;12.87;;;7.83;;
2760;SDS011;15420;48.636;9.798;2023-02-28T17:24:29;16.90;;;9.90;;
2760;SDS011;15420;48.636;9.798;2023-02-28T17:26:55;23.83;;;12.93;;
2760;SDS011;15420;48.636;9.798;2023-02-28T17:29:22;23.20;;;13.10;;
2760;SDS011;15420;48.636;9.798;2023-02-28T17:31:49;22.57;;;13.20;;
2760;SDS011;15420;48.636;9.798;2023-02-28T17:34:15;23.23;;;12.50;;
2760;SDS011;15420;48.636;9.798;2023-02-28T17:36:46;18.30;;;11.10;;
2760;SDS011;15420;48.636;9.798;2023-02-28T17:39:16;15.30;;;10.37;;
2760;SDS011;15420;48.636;9.798;2023-02-28T17:41:52;29.73;;;15.50;;
2760;SDS011;15420;48.636;9.798;2023-02-28T17:44:24;21.30;;;13.00;;
2760;SDS011;15420;48.636;9.798;2023-02-28T17:46:51;20.33;;;12.00;;
2760;SDS011;15420;48.636;9.798;2023-02-28T17:49:18;16.17;;;10.53;;
2760;SDS011;15420;48.636;9.798;2023-02-28T17:51:45;19.57;;;10.73;;
2760;SDS011;15420;48.636;9.798;2023-02-28T17:54:14;14.90;;;9.50;;
2760;SDS011;15420;48.636;9.798;2023-02-28T17:56:41;15.47;;;10.00;;
2760;SDS011;15420;48.636;9.798;2023-02-28T17:59:08;13.80;;;10.40;;
2760;SDS011;15420;48.636;9.798;2023-02-28T18:01:35;17.73;;;10.90;;
2760;SDS011;15420;48.636;9.798;2023-02-28T18:04:04;18.00;;;10.43;;
2760;SDS011;15420;48.636;9.798;2023-02-28T18:09:02;23.80;;;15.03;;
2760;SDS011;15420;48.636;9.798;2023-02-28T18:11:28;19.20;;;12.73;;
2760;SDS011;15420;48.636;9.798;2023-02-28T18:14:07;25.40;;;13.10;;
2760;SDS011;15420;48.636;9.798;2023-02-28T18:16:33;18.90;;;11.50;;
2760;SDS011;15420;48.636;9.798;2023-02-28T18:19:00;19.00;;;11.37;;